createdAt,value
2018-02-08T00:13:06.554Z,6.57
2018-02-08T00:15:53.963Z,7.70
2018-02-08T00:18:42.061Z,7.40
2018-02-08T00:21:29.404Z,6.93
2018-02-08T00:24:16.931Z,7.97
2018-02-08T00:49:54.541Z,7.40
2018-02-08T00:52:41.782Z,7.80
2018-02-08T01:11:49.109Z,7.90
2018-02-08T01:14:36.506Z,8.10
2018-02-08T01:17:25.740Z,7.73
2018-02-08T01:20:12.888Z,7.10
2018-02-08T01:23:00.092Z,8.60
2018-02-08T01:25:48.066Z,8.00
2018-02-08T01:28:35.895Z,7.77
2018-02-08T01:31:23.212Z,7.30
2018-02-08T01:34:11.430Z,7.30
2018-02-08T01:36:58.699Z,6.67
2018-02-08T01:39:47.548Z,6.70
2018-02-08T01:42:34.855Z,7.10
2018-02-08T01:45:22.287Z,7.67
2018-02-08T01:48:09.810Z,7.10
2018-02-08T01:50:59.003Z,7.43
2018-02-08T01:53:47.059Z,7.00
2018-02-08T01:56:35.062Z,7.37
2018-02-08T01:59:22.120Z,7.07
2018-02-08T02:02:09.576Z,6.80
2018-02-08T02:04:56.833Z,7.00
2018-02-08T02:07:44.122Z,7.20
2018-02-08T02:10:31.524Z,7.13
2018-02-08T02:13:19.146Z,7.35
2018-02-08T02:16:07.205Z,7.83
2018-02-08T02:18:54.766Z,8.18
2018-02-08T02:21:42.315Z,7.43
2018-02-08T02:24:29.670Z,6.47
2018-02-08T02:27:17.270Z,7.50
2018-02-08T02:30:04.576Z,7.20
2018-02-08T02:32:52.046Z,7.87
2018-02-08T02:35:40.108Z,8.05
2018-02-08T02:38:27.447Z,7.60
2018-02-08T02:41:14.782Z,6.93
2018-02-08T02:44:02.027Z,7.57
2018-02-08T02:46:49.411Z,7.70
2018-02-08T02:49:36.930Z,7.10
2018-02-08T03:08:44.935Z,7.07
2018-02-08T03:11:32.131Z,8.00
2018-02-08T03:14:19.263Z,8.03
2018-02-08T03:17:06.422Z,7.20
2018-02-08T03:19:53.856Z,6.80
2018-02-08T03:22:41.151Z,6.90
2018-02-08T03:25:28.681Z,7.18
2018-02-08T03:28:16.006Z,7.97
2018-02-08T03:31:04.221Z,6.70
2018-02-08T03:33:51.615Z,7.97
2018-02-08T03:36:39.085Z,6.57
2018-02-08T03:39:26.301Z,7.80
2018-02-08T03:42:13.924Z,7.90
2018-02-08T03:45:01.040Z,7.23
2018-02-08T03:47:48.284Z,6.37
2018-02-08T03:50:35.438Z,7.70
2018-02-08T03:53:23.692Z,7.33
2018-02-08T03:56:11.562Z,8.13
2018-02-08T03:59:00.365Z,7.53
2018-02-08T04:01:49.126Z,7.07
2018-02-08T04:04:36.358Z,7.17
2018-02-08T04:07:23.644Z,7.40
2018-02-08T04:10:12.013Z,7.70
2018-02-08T04:12:59.455Z,7.25
2018-02-08T04:15:47.093Z,8.05
2018-02-08T04:18:34.415Z,8.27
2018-02-08T04:21:22.070Z,7.87
2018-02-08T04:46:59.589Z,8.40
2018-02-08T04:49:47.654Z,9.80
2018-02-08T04:52:35.222Z,9.80
2018-02-08T04:55:23.470Z,8.90
2018-02-08T04:58:11.010Z,7.90
2018-02-08T05:00:58.302Z,9.10
2018-02-08T05:03:46.258Z,8.30
2018-02-08T05:06:33.447Z,9.07
2018-02-08T05:09:20.997Z,8.73
2018-02-08T05:12:08.914Z,8.40
2018-02-08T05:14:56.239Z,8.07
2018-02-08T05:17:43.476Z,7.37
2018-02-08T05:20:31.509Z,8.20
2018-02-08T05:23:19.426Z,8.17
2018-02-08T05:26:06.850Z,7.87
2018-02-08T05:28:54.868Z,8.10
2018-02-08T05:31:42.360Z,7.97
2018-02-08T05:34:30.491Z,9.97
2018-02-08T05:37:17.868Z,7.60
2018-02-08T05:40:05.070Z,8.00
2018-02-08T05:42:52.556Z,7.90
2018-02-08T05:45:39.859Z,7.67
2018-02-08T05:48:27.311Z,8.70
2018-02-08T05:51:14.877Z,9.10
2018-02-08T05:54:02.299Z,7.50
2018-02-08T05:56:49.667Z,8.33
2018-02-08T05:59:37.071Z,8.63
2018-02-08T06:25:14.735Z,8.47
2018-02-08T06:28:01.986Z,9.83
2018-02-08T06:30:49.699Z,8.80
2018-02-08T06:33:37.270Z,8.90
2018-02-08T06:36:24.853Z,8.40
2018-02-08T06:39:12.056Z,8.40
2018-02-08T06:41:59.547Z,9.38
2018-02-08T06:44:47.014Z,8.50
2018-02-08T06:47:34.382Z,9.00
2018-02-08T06:50:21.848Z,9.13
2018-02-08T07:09:29.451Z,8.03
2018-02-08T07:12:17.017Z,7.97
2018-02-08T07:31:24.679Z,9.67
2018-02-08T07:34:12.026Z,8.27
2018-02-08T07:36:59.246Z,9.10
2018-02-08T07:39:47.088Z,9.10
2018-02-08T07:42:34.409Z,9.47
2018-02-08T07:45:22.375Z,7.70
2018-02-08T08:04:29.684Z,7.90
2018-02-08T08:07:17.983Z,9.35
2018-02-08T08:10:05.334Z,8.63
2018-02-08T08:12:54.978Z,8.38
2018-02-08T08:15:42.100Z,8.83
2018-02-08T08:18:29.355Z,9.23
2018-02-08T08:21:16.760Z,8.30
2018-02-08T08:24:04.111Z,8.10
2018-02-08T08:26:51.357Z,9.87
2018-02-08T08:29:40.184Z,8.63
2018-02-08T08:32:28.697Z,8.48
2018-02-08T08:58:05.961Z,9.37
2018-02-08T09:00:53.766Z,9.43
2018-02-08T09:03:41.041Z,8.63
2018-02-08T09:06:28.156Z,8.10
2018-02-08T09:09:15.403Z,8.97
2018-02-08T09:12:02.745Z,9.20
2018-02-08T09:14:51.550Z,8.03
2018-02-08T09:17:39.618Z,9.67
2018-02-08T09:20:28.898Z,8.17
2018-02-08T09:23:16.197Z,10.00
2018-02-08T09:26:04.912Z,8.60
2018-02-08T09:28:52.916Z,9.77
2018-02-08T09:31:41.225Z,8.98
2018-02-08T09:34:28.838Z,9.60
2018-02-08T09:37:16.152Z,9.80
2018-02-08T09:40:03.467Z,9.20
2018-02-08T09:42:50.993Z,9.10
2018-02-08T09:45:38.089Z,10.53
2018-02-08T09:48:26.510Z,9.57
2018-02-08T09:51:13.998Z,9.30
2018-02-08T09:54:01.259Z,9.13
2018-02-08T09:56:48.726Z,9.20
2018-02-08T09:59:40.711Z,8.93
2018-02-08T10:02:28.038Z,9.23
2018-02-08T10:05:15.286Z,8.23
2018-02-08T10:08:03.044Z,9.50
2018-02-08T10:10:50.168Z,9.43
2018-02-08T10:13:38.797Z,8.57
2018-02-08T10:16:26.396Z,9.30
2018-02-08T10:19:13.947Z,8.90
2018-02-08T10:22:01.492Z,8.53
2018-02-08T10:24:48.651Z,8.60
2018-02-08T10:27:36.105Z,9.05
2018-02-08T10:30:23.482Z,9.60
2018-02-08T10:33:10.683Z,8.80
2018-02-08T10:35:58.976Z,8.53
2018-02-08T10:38:46.275Z,9.67
2018-02-08T10:41:33.640Z,8.27
2018-02-08T10:44:22.115Z,9.30
2018-02-08T10:47:09.332Z,9.20
2018-02-08T10:49:58.042Z,9.37
2018-02-08T10:52:45.657Z,8.87
2018-02-08T10:55:33.762Z,9.30
2018-02-08T10:58:21.557Z,9.47
2018-02-08T11:01:08.772Z,9.43
2018-02-08T11:03:57.012Z,9.15
2018-02-08T11:06:44.400Z,10.77
2018-02-08T11:09:31.496Z,9.33
2018-02-08T11:12:19.064Z,9.67
2018-02-08T11:15:07.025Z,9.70
2018-02-08T11:17:54.420Z,9.63
2018-02-08T11:20:42.009Z,11.30
2018-02-08T11:39:53.458Z,9.60
2018-02-08T11:42:40.827Z,9.80
2018-02-08T11:45:28.167Z,9.47
2018-02-08T11:48:15.336Z,9.83
2018-02-08T11:51:02.618Z,10.00
2018-02-08T11:53:49.870Z,9.33
2018-02-08T11:56:37.370Z,9.97
2018-02-08T11:59:25.552Z,8.63
2018-02-08T12:02:12.886Z,9.27
2018-02-08T12:05:01.013Z,9.30
2018-02-08T12:07:49.199Z,9.90
2018-02-08T12:10:36.353Z,9.90
2018-02-08T12:13:23.735Z,8.70
2018-02-08T12:16:10.865Z,10.30
2018-02-08T12:18:58.841Z,9.17
2018-02-08T12:21:45.961Z,9.63
2018-02-08T12:24:33.285Z,8.67
2018-02-08T12:27:20.548Z,9.63
2018-02-08T12:30:08.239Z,9.27
2018-02-08T12:32:55.382Z,10.57
2018-02-08T12:35:43.052Z,9.60
2018-02-08T12:38:31.041Z,11.03
2018-02-08T12:41:18.489Z,10.60
2018-02-08T12:44:06.053Z,10.45
2018-02-08T12:46:53.265Z,9.80
2018-02-08T12:49:41.156Z,9.43
2018-02-08T12:52:28.578Z,9.33
2018-02-08T12:55:16.492Z,9.73
2018-02-08T13:14:25.691Z,10.73
2018-02-08T13:17:12.946Z,9.70
2018-02-08T13:20:00.243Z,9.80
2018-02-08T13:22:47.799Z,10.90
2018-02-08T13:25:35.634Z,9.20
2018-02-08T13:28:24.345Z,9.28
2018-02-08T13:31:11.956Z,10.50
2018-02-08T13:56:49.995Z,10.83
2018-02-08T13:59:38.510Z,10.23
2018-02-08T14:02:25.941Z,11.50
2018-02-08T14:05:14.280Z,11.10
2018-02-08T14:08:01.393Z,9.80
2018-02-08T14:10:48.848Z,9.77
2018-02-08T14:13:36.096Z,10.73
2018-02-08T14:16:23.402Z,11.37
2018-02-08T14:19:10.907Z,10.00
2018-02-08T14:21:58.090Z,11.70
2018-02-08T14:24:45.350Z,11.10
2018-02-08T14:27:32.603Z,11.47
2018-02-08T14:30:20.253Z,11.93
2018-02-08T14:33:07.850Z,13.13
2018-02-08T14:35:55.254Z,11.10
2018-02-08T14:38:42.450Z,12.03
2018-02-08T14:41:30.506Z,11.73
2018-02-08T14:44:17.645Z,12.90
2018-02-08T15:03:25.251Z,14.60
2018-02-08T15:06:12.660Z,15.30
2018-02-08T15:09:00.735Z,14.90
2018-02-08T15:11:48.068Z,13.30
2018-02-08T15:14:36.422Z,15.80
2018-02-08T15:17:24.665Z,14.10
2018-02-08T15:20:11.957Z,13.03
2018-02-08T15:22:59.253Z,13.17
2018-02-08T15:25:46.718Z,13.30
2018-02-08T15:28:33.855Z,12.47
2018-02-08T15:31:21.265Z,13.00
2018-02-08T15:34:08.579Z,13.80
2018-02-08T15:36:56.645Z,12.83
2018-02-08T15:39:43.833Z,12.50
2018-02-08T15:42:32.026Z,12.73
2018-02-08T15:45:19.274Z,12.70
2018-02-08T15:48:06.532Z,11.53
2018-02-08T15:50:53.844Z,11.17
2018-02-08T15:53:42.149Z,12.37
2018-02-08T15:56:29.331Z,12.03
2018-02-08T15:59:17.397Z,11.00
2018-02-08T16:02:04.509Z,10.63
2018-02-08T16:04:52.197Z,10.93
2018-02-08T16:07:39.451Z,10.20
2018-02-08T16:10:26.692Z,10.43
2018-02-08T16:13:13.897Z,12.30
2018-02-08T16:16:01.202Z,9.80
2018-02-08T16:18:49.290Z,11.77
2018-02-08T16:21:36.957Z,11.13
2018-02-08T16:24:24.094Z,11.63
2018-02-08T16:27:12.007Z,10.43
2018-02-08T16:29:59.759Z,11.33
2018-02-08T16:32:46.952Z,10.43
2018-02-08T16:35:34.145Z,10.13
2018-02-08T16:38:21.325Z,10.80
2018-02-08T16:41:08.595Z,10.40
2018-02-08T16:43:55.770Z,10.73
2018-02-08T16:46:43.068Z,11.07
2018-02-08T16:49:30.377Z,9.93
2018-02-08T16:52:17.808Z,10.80
2018-02-08T16:55:05.056Z,10.63
2018-02-08T16:57:52.211Z,10.67
2018-02-08T17:00:40.130Z,11.20
2018-02-08T17:03:28.138Z,10.27
2018-02-08T17:06:15.764Z,9.73
2018-02-08T17:09:02.908Z,10.37
2018-02-08T17:11:50.211Z,10.97
2018-02-08T17:14:37.558Z,10.83
2018-02-08T17:17:25.433Z,9.97
2018-02-08T17:20:13.253Z,10.10
2018-02-08T17:23:00.668Z,10.00
2018-02-08T17:25:47.820Z,10.03
2018-02-08T17:28:35.036Z,10.90
2018-02-08T17:31:23.076Z,8.90
2018-02-08T17:34:11.041Z,9.23
2018-02-08T17:36:58.920Z,9.10
2018-02-08T17:39:46.202Z,9.30
2018-02-08T17:42:33.431Z,9.23
2018-02-08T17:45:20.638Z,9.70
2018-02-08T17:48:08.438Z,9.93
2018-02-08T17:50:55.643Z,8.90
2018-02-08T17:53:42.929Z,9.43
2018-02-08T17:56:30.246Z,9.13
2018-02-08T17:59:18.322Z,10.60
2018-02-08T18:02:05.650Z,10.10
2018-02-08T18:04:52.925Z,8.87
2018-02-08T18:07:40.645Z,10.47
2018-02-08T18:10:27.880Z,10.10
2018-02-08T18:13:15.055Z,9.27
2018-02-08T18:16:02.300Z,9.60
2018-02-08T18:18:49.587Z,9.97
2018-02-08T18:21:36.882Z,9.80
2018-02-08T18:24:25.105Z,9.27
2018-02-08T18:27:12.227Z,9.20
2018-02-08T18:30:00.041Z,8.90
2018-02-08T18:32:47.176Z,8.53
2018-02-08T18:35:34.460Z,8.80
2018-02-08T18:38:21.602Z,8.40
2018-02-08T18:41:08.766Z,8.33
2018-02-08T18:43:56.171Z,8.80
2018-02-08T18:46:43.414Z,8.40
2018-02-08T18:49:32.011Z,9.27
2018-02-08T18:52:19.411Z,9.47
2018-02-08T18:55:06.576Z,9.53
2018-02-08T18:57:53.771Z,8.43
2018-02-08T19:00:41.027Z,8.73
2018-02-08T19:03:28.319Z,8.17
2018-02-08T19:06:15.577Z,8.47
2018-02-08T19:09:03.265Z,7.57
2018-02-08T19:11:51.290Z,7.63
2018-02-08T19:14:39.317Z,9.90
2018-02-08T19:17:26.409Z,7.87
2018-02-08T19:20:13.648Z,8.43
2018-02-08T19:23:01.241Z,7.37
2018-02-08T19:25:48.426Z,6.77
2018-02-08T19:28:36.446Z,7.00
2018-02-08T19:31:23.591Z,8.30
2018-02-08T19:34:11.707Z,7.30
2018-02-08T19:36:59.784Z,7.47
2018-02-08T19:39:47.004Z,7.77
2018-02-08T19:42:34.966Z,6.70
2018-02-08T19:45:22.140Z,7.23
2018-02-08T19:48:09.721Z,7.50
2018-02-08T19:50:56.960Z,6.10
2018-02-08T19:53:44.148Z,6.13
2018-02-08T19:56:31.276Z,7.00
2018-02-08T19:59:19.191Z,6.80
2018-02-08T20:02:07.156Z,6.07
2018-02-08T20:04:54.478Z,5.93
2018-02-08T20:07:42.670Z,6.70
2018-02-08T20:10:30.486Z,6.70
2018-02-08T20:13:17.656Z,6.70
2018-02-08T20:16:04.721Z,6.77
2018-02-08T20:18:51.982Z,7.30
2018-02-08T20:21:39.343Z,6.80
2018-02-08T20:24:27.096Z,6.80
2018-02-08T20:27:14.446Z,5.80
2018-02-08T20:30:01.658Z,5.47
2018-02-08T20:32:49.041Z,6.27
2018-02-08T20:35:36.907Z,6.40
2018-02-08T20:38:24.129Z,6.33
2018-02-08T20:41:11.247Z,5.33
2018-02-08T20:43:59.320Z,6.30
2018-02-08T20:46:46.555Z,5.83
2018-02-08T20:49:33.653Z,7.33
2018-02-08T20:52:20.910Z,6.40
2018-02-08T20:55:08.325Z,5.43
2018-02-08T20:57:55.392Z,5.87
2018-02-08T21:00:43.513Z,6.10
2018-02-08T21:03:31.479Z,6.07
2018-02-08T21:06:19.357Z,6.00
2018-02-08T21:09:06.468Z,5.63
2018-02-08T21:11:54.219Z,6.30
2018-02-08T21:14:41.573Z,6.83
2018-02-08T21:17:29.787Z,6.13
2018-02-08T21:20:17.085Z,5.27
2018-02-08T21:23:04.497Z,5.60
2018-02-08T21:25:51.757Z,6.10
2018-02-08T21:28:39.076Z,5.57
2018-02-08T21:31:27.329Z,5.63
2018-02-08T21:34:14.697Z,5.30
2018-02-08T21:37:03.025Z,5.73
2018-02-08T21:39:50.284Z,5.40
2018-02-08T21:42:37.307Z,5.67
2018-02-08T21:45:25.576Z,6.30
2018-02-08T21:48:12.853Z,5.10
2018-02-08T21:51:01.108Z,5.60
2018-02-08T21:53:49.380Z,5.83
2018-02-08T21:56:37.444Z,4.80
2018-02-08T21:59:24.641Z,5.70
2018-02-08T22:02:12.817Z,5.73
2018-02-08T22:05:00.023Z,5.03
2018-02-08T22:07:47.626Z,5.67
2018-02-08T22:10:35.895Z,5.47
2018-02-08T22:13:23.875Z,5.67
2018-02-08T22:16:11.150Z,5.10
2018-02-08T22:18:58.390Z,4.70
2018-02-08T22:21:46.057Z,5.13
2018-02-08T22:24:33.298Z,4.37
2018-02-08T22:27:20.653Z,4.40
2018-02-08T22:30:08.752Z,5.00
2018-02-08T22:32:55.959Z,4.60
2018-02-08T22:35:44.096Z,4.50
2018-02-08T22:38:31.427Z,5.80
2018-02-08T22:41:18.758Z,5.40
2018-02-08T22:44:05.891Z,5.50
2018-02-08T22:46:53.182Z,5.50
2018-02-08T22:49:40.424Z,5.17
2018-02-08T22:52:27.648Z,4.97
2018-02-08T22:55:15.002Z,4.50
2018-02-08T22:58:03.806Z,4.57
2018-02-08T23:00:51.052Z,5.70
2018-02-08T23:03:38.293Z,4.80
2018-02-08T23:06:25.756Z,4.70
2018-02-08T23:09:13.711Z,5.33
2018-02-08T23:12:01.752Z,5.50
2018-02-08T23:14:49.499Z,4.50
2018-02-08T23:17:36.632Z,4.53
2018-02-08T23:20:24.838Z,4.53
2018-02-08T23:23:12.754Z,6.03
2018-02-08T23:25:59.970Z,5.53
2018-02-08T23:28:47.135Z,5.63
2018-02-08T23:31:35.212Z,6.13
2018-02-08T23:34:22.588Z,5.63
2018-02-08T23:37:09.923Z,5.60
2018-02-08T23:39:57.172Z,6.10
2018-02-08T23:42:44.445Z,6.67
2018-02-08T23:45:32.391Z,6.07
2018-02-08T23:48:20.219Z,6.97
2018-02-08T23:51:07.301Z,6.53
2018-02-08T23:53:54.576Z,7.30
2018-02-08T23:56:41.741Z,6.43
2018-02-08T23:59:28.991Z,6.90
